Time;durP1;ratioP1;P1;durP2;ratioP2;P2;SDS_P1;SDS_P2;PMS_P1;PMS_P2;Temp;Humidity;BMP_temperature;BMP_pressure;BME280_temperature;BME280_humidity;BME280_pressure;Samples;Min_cycle;Max_cycle;Signal;HPM_P1;HPM_P2
2021/03/03 00:00:05;;;;;;;87.60;42.85;;;;;;;4.51;100.00;102246.03;4979888;28;20046;-50
2021/03/03 00:02:32;;;;;;;84.68;41.55;;;;;;;4.42;100.00;102241.25;4987012;28;20039;-52
2021/03/03 00:04:59;;;;;;;74.80;37.95;;;;;;;4.40;100.00;102241.34;4983585;28;20046;-53
2021/03/03 00:07:26;;;;;;;87.95;41.63;;;;;;;4.33;100.00;102240.00;4986241;28;20431;-52
2021/03/03 00:09:53;;;;;;;75.13;36.78;;;;;;;4.30;100.00;102241.00;4983768;28;20061;-54
2021/03/03 00:12:20;;;;;;;77.65;37.65;;;;;;;4.45;100.00;102249.00;4986840;28;20061;-53
2021/03/03 00:14:48;;;;;;;83.97;39.00;;;;;;;4.48;100.00;102244.41;4982789;28;20090;-54
2021/03/03 00:17:15;;;;;;;77.05;37.50;;;;;;;4.30;100.00;102248.09;4986087;28;20046;-54
2021/03/03 00:19:42;;;;;;;75.38;38.35;;;;;;;4.11;100.00;102248.28;4986828;28;20061;-53
2021/03/03 00:22:11;;;;;;;74.80;35.28;;;;;;;4.28;100.00;102242.03;4985610;28;20120;-53
2021/03/03 00:24:38;;;;;;;75.10;37.78;;;;;;;4.61;100.00;102244.53;4985825;28;20046;-53
2021/03/03 00:27:05;;;;;;;89.95;41.30;;;;;;;4.78;100.00;102243.56;4983904;28;20438;-53
2021/03/03 00:29:32;;;;;;;79.93;40.83;;;;;;;5.02;100.00;102240.41;4983309;28;20061;-51
2021/03/03 00:32:00;;;;;;;78.22;37.95;;;;;;;4.73;100.00;102248.25;4985157;28;20038;-53
2021/03/03 00:34:27;;;;;;;87.32;40.50;;;;;;;4.39;100.00;102252.00;4988632;28;20046;-53
2021/03/03 00:36:54;;;;;;;85.63;42.42;;;;;;;4.27;100.00;102250.94;4985672;28;20046;-52
2021/03/03 00:39:21;;;;;;;79.40;39.83;;;;;;;4.01;100.00;102258.50;4985793;28;20264;-53
2021/03/03 00:41:48;;;;;;;89.95;42.97;;;;;;;4.02;100.00;102254.94;4980588;28;20045;-54
2021/03/03 00:44:15;;;;;;;88.38;43.20;;;;;;;4.09;100.00;102243.06;4986574;28;20038;-52
2021/03/03 00:46:41;;;;;;;100.50;46.00;;;;;;;4.10;100.00;102260.66;4984880;28;20339;-51
2021/03/03 00:49:10;;;;;;;95.80;44.88;;;;;;;4.07;100.00;102257.31;4983628;28;20058;-51
2021/03/03 00:51:36;;;;;;;101.43;48.08;;;;;;;4.16;100.00;102259.47;4985349;28;20045;-50
2021/03/03 00:54:04;;;;;;;102.75;47.30;;;;;;;4.21;100.00;102259.19;4985937;28;20057;-54
2021/03/03 00:56:31;;;;;;;95.25;44.90;;;;;;;4.33;100.00;102253.22;4985279;28;20454;-52
2021/03/03 00:58:58;;;;;;;104.63;46.03;;;;;;;4.54;100.00;102259.06;4980832;28;20433;-53
2021/03/03 01:01:25;;;;;;;88.95;44.72;;;;;;;4.52;100.00;102249.50;4987487;28;20043;-54
2021/03/03 01:03:53;;;;;;;86.72;41.60;;;;;;;4.71;100.00;102250.16;4984221;28;20570;-49
2021/03/03 01:06:21;;;;;;;86.43;43.05;;;;;;;4.79;100.00;102255.84;4985019;28;20051;-54
2021/03/03 01:08:47;;;;;;;87.90;42.70;;;;;;;4.85;100.00;102257.28;4985693;28;20072;-49
2021/03/03 01:11:14;;;;;;;95.72;45.05;;;;;;;4.98;100.00;102254.78;4988587;28;20342;-53
2021/03/03 01:13:41;;;;;;;92.05;41.40;;;;;;;5.32;100.00;102248.28;4985707;28;20038;-52
2021/03/03 01:16:08;;;;;;;80.97;37.03;;;;;;;5.66;100.00;102253.31;4984302;28;20038;-54
2021/03/03 01:18:35;;;;;;;82.22;36.75;;;;;;;5.70;100.00;102241.56;4984527;28;20069;-52
2021/03/03 01:21:02;;;;;;;71.47;35.83;;;;;;;5.64;100.00;102236.63;4987640;28;20073;-52
2021/03/03 01:23:30;;;;;;;78.03;37.67;;;;;;;5.59;100.00;102239.56;4981507;28;20049;-52
2021/03/03 01:25:57;;;;;;;74.82;38.05;;;;;;;5.36;100.00;102235.72;4981952;28;20105;-53
2021/03/03 01:28:28;;;;;;;75.07;36.40;;;;;;;5.46;100.00;102233.34;4985685;28;20382;-53
2021/03/03 01:30:55;;;;;;;77.07;38.05;;;;;;;5.32;100.00;102232.38;4987246;28;20046;-53
2021/03/03 01:33:26;;;;;;;65.82;36.03;;;;;;;5.11;100.00;102237.19;4982608;28;20038;-51
2021/03/03 01:35:53;;;;;;;74.30;35.78;;;;;;;5.03;100.00;102238.59;4991841;28;20348;-52
2021/03/03 01:38:22;;;;;;;69.05;37.40;;;;;;;5.02;100.00;102232.47;4986335;28;20042;-52
2021/03/03 01:40:50;;;;;;;70.80;34.95;;;;;;;4.95;100.00;102226.69;4990762;28;20049;-53
2021/03/03 01:43:17;;;;;;;68.28;37.38;;;;;;;4.98;100.00;102228.28;4985844;28;20047;-54
2021/03/03 01:45:44;;;;;;;75.22;38.33;;;;;;;4.96;100.00;102223.09;4986861;28;20046;-52
2021/03/03 01:48:12;;;;;;;75.70;37.60;;;;;;;4.92;100.00;102232.16;4992114;28;20133;-54
2021/03/03 01:50:39;;;;;;;68.80;37.42;;;;;;;4.91;100.00;102229.59;4984679;28;20038;-53
2021/03/03 01:53:08;;;;;;;72.82;37.58;;;;;;;4.85;100.00;102235.25;4984175;28;20410;-53
2021/03/03 01:55:35;;;;;;;71.03;37.63;;;;;;;4.83;100.00;102227.41;4990444;28;20478;-54
2021/03/03 01:58:03;;;;;;;74.35;38.45;;;;;;;4.69;100.00;102235.31;4988212;28;20477;-53
2021/03/03 02:00:30;;;;;;;78.50;40.33;;;;;;;4.63;100.00;102232.06;4987797;28;20049;-54
2021/03/03 02:02:57;;;;;;;85.57;40.92;;;;;;;4.56;100.00;102224.59;4990089;28;20042;-54
2021/03/03 02:05:25;;;;;;;74.47;38.80;;;;;;;4.51;100.00;102224.00;4990928;28;20042;-52
2021/03/03 02:07:56;;;;;;;70.95;38.22;;;;;;;4.48;100.00;102223.25;4988569;28;20050;-53
2021/03/03 02:10:29;;;;;;;69.30;37.78;;;;;;;4.44;100.00;102221.72;4988128;28;20423;-53
2021/03/03 02:13:00;;;;;;;76.80;39.38;;;;;;;4.44;100.00;102219.06;4989298;28;20042;-52
2021/03/03 02:15:29;;;;;;;81.70;40.53;;;;;;;4.42;100.00;102213.03;4987445;28;20049;-52
2021/03/03 02:17:57;;;;;;;86.75;42.88;;;;;;;4.28;100.00;102218.22;4989551;28;20042;-51
2021/03/03 02:20:25;;;;;;;74.50;38.72;;;;;;;4.19;100.00;102214.31;4986764;28;20084;-54
2021/03/03 02:22:59;;;;;;;78.15;39.38;;;;;;;4.10;100.00;102202.47;4986370;28;20063;-54
2021/03/03 02:25:28;;;;;;;82.00;41.22;;;;;;;4.09;100.00;102207.88;4988236;28;20427;-52
2021/03/03 02:27:56;;;;;;;69.82;35.33;;;;;;;4.04;100.00;102202.84;4989022;28;20042;-49
2021/03/03 02:30:24;;;;;;;82.22;42.28;;;;;;;3.96;100.00;102211.19;4983766;28;20038;-48
2021/03/03 02:32:52;;;;;;;86.35;44.00;;;;;;;3.88;100.00;102202.00;4990938;28;20441;-53
2021/03/03 02:35:20;;;;;;;86.40;42.53;;;;;;;3.82;100.00;102202.34;4989881;28;20052;-53
2021/03/03 02:37:47;;;;;;;93.72;44.63;;;;;;;3.96;100.00;102197.97;4987746;28;20043;-51
2021/03/03 02:40:16;;;;;;;102.45;49.65;;;;;;;4.25;100.00;102194.63;4987357;28;20438;-54
2021/03/03 02:42:44;;;;;;;100.95;49.20;;;;;;;4.46;100.00;102197.81;4989237;28;20057;-54
2021/03/03 02:45:13;;;;;;;102.13;48.92;;;;;;;4.52;100.00;102191.31;4989680;28;20528;-52
2021/03/03 02:47:41;;;;;;;84.57;43.63;;;;;;;4.42;100.00;102191.00;4986407;28;20061;-53
2021/03/03 02:50:09;;;;;;;86.20;45.63;;;;;;;4.45;100.00;102182.88;4983303;28;20047;-54
2021/03/03 02:52:50;;;;;;;84.82;43.95;;;;;;;4.41;100.00;102182.22;4989310;28;20042;-54
2021/03/03 02:55:18;;;;;;;89.43;43.67;;;;;;;4.52;100.00;102170.97;4988014;28;20068;-53
2021/03/03 02:57:45;;;;;;;88.63;45.42;;;;;;;4.57;100.00;102173.38;4986784;28;20051;-54
2021/03/03 03:00:15;;;;;;;83.63;43.85;;;;;;;4.71;100.00;102169.94;4987086;28;20413;-54
2021/03/03 03:02:45;;;;;;;91.05;45.85;;;;;;;4.70;100.00;102173.50;4991236;28;20048;-53
2021/03/03 03:05:13;;;;;;;91.65;43.83;;;;;;;4.61;100.00;102169.63;4989338;28;20092;-54
2021/03/03 03:07:42;;;;;;;82.88;42.25;;;;;;;4.48;100.00;102174.78;4986918;28;20047;-54
2021/03/03 03:10:11;;;;;;;83.97;42.33;;;;;;;4.75;100.00;102177.56;4986492;28;20050;-51
2021/03/03 03:12:38;;;;;;;87.15;42.92;;;;;;;4.60;100.00;102173.19;4988311;28;20057;-53
2021/03/03 03:15:08;;;;;;;80.47;43.45;;;;;;;4.44;100.00;102176.75;4988856;28;20051;-53
2021/03/03 03:17:35;;;;;;;86.20;45.78;;;;;;;4.46;100.00;102166.06;4988497;28;20039;-53
2021/03/03 03:20:04;;;;;;;90.40;44.45;;;;;;;4.35;100.00;102169.31;4984058;28;20121;-52
2021/03/03 03:22:33;;;;;;;86.35;45.30;;;;;;;4.35;100.00;102174.63;4989743;28;20461;-54
2021/03/03 03:25:00;;;;;;;88.18;44.78;;;;;;;4.34;100.00;102167.66;4983817;28;20441;-53
2021/03/03 03:27:27;;;;;;;86.53;44.42;;;;;;;4.40;100.00;102163.78;4990434;28;20050;-53
2021/03/03 03:29:54;;;;;;;104.68;47.85;;;;;;;4.51;100.00;102160.50;4983796;28;20465;-51
2021/03/03 03:32:24;;;;;;;88.43;45.33;;;;;;;4.64;100.00;102161.50;4990717;28;20449;-53
2021/03/03 03:34:52;;;;;;;87.47;45.28;;;;;;;4.85;100.00;102163.78;4986449;28;20042;-53
2021/03/03 03:37:20;;;;;;;93.25;46.58;;;;;;;4.92;100.00;102165.97;4989418;28;20050;-53
2021/03/03 03:39:46;;;;;;;86.88;42.72;;;;;;;5.09;100.00;102159.66;4987364;28;20042;-53
2021/03/03 03:42:14;;;;;;;79.50;39.45;;;;;;;5.27;100.00;102162.09;4986273;28;20039;-54
2021/03/03 03:44:42;;;;;;;83.90;41.63;;;;;;;5.26;100.00;102166.56;4988245;28;20058;-54
2021/03/03 03:47:09;;;;;;;91.00;43.00;;;;;;;5.16;100.00;102174.22;4987884;28;20050;-49
2021/03/03 03:49:38;;;;;;;89.20;42.90;;;;;;;5.14;100.00;102178.72;4986909;28;20427;-53
2021/03/03 03:52:05;;;;;;;77.60;43.72;;;;;;;5.23;100.00;102179.13;4987141;28;20041;-53
2021/03/03 03:54:32;;;;;;;88.65;44.17;;;;;;;5.31;100.00;102168.91;4987448;28;20069;-54
2021/03/03 03:56:59;;;;;;;91.38;43.63;;;;;;;5.62;100.00;102177.56;4987483;28;20057;-53
2021/03/03 03:59:26;;;;;;;81.10;43.08;;;;;;;5.63;100.00;102179.28;4983695;28;20038;-51
2021/03/03 04:01:52;;;;;;;80.47;41.08;;;;;;;5.74;100.00;102182.09;4983811;28;20090;-54
2021/03/03 04:04:19;;;;;;;72.53;40.40;;;;;;;5.85;100.00;102192.00;4989633;28;20191;-54
2021/03/03 04:06:47;;;;;;;72.43;37.40;;;;;;;5.49;100.00;102202.19;4985034;28;20053;-50
2021/03/03 04:09:14;;;;;;;65.30;34.78;;;;;;;5.21;100.00;102191.63;4985145;28;20073;-53
2021/03/03 04:11:41;;;;;;;71.45;38.38;;;;;;;5.13;100.00;102203.53;4988840;28;20066;-48
2021/03/03 04:14:10;;;;;;;74.75;40.65;;;;;;;5.11;100.00;102199.28;4985258;28;20427;-52
2021/03/03 04:16:37;;;;;;;85.20;42.30;;;;;;;4.96;100.00;102195.75;4988141;28;20049;-52
2021/03/03 04:19:04;;;;;;;81.68;42.92;;;;;;;4.97;100.00;102202.75;4982707;28;20061;-53
2021/03/03 04:21:31;;;;;;;84.80;44.83;;;;;;;5.01;100.00;102196.34;4987182;28;20042;-50
2021/03/03 04:23:59;;;;;;;87.78;44.17;;;;;;;5.04;100.00;102204.09;4986591;28;20049;-53
2021/03/03 04:26:25;;;;;;;88.03;46.17;;;;;;;5.05;100.00;102203.16;4983314;28;20045;-53
2021/03/03 04:28:52;;;;;;;89.07;46.50;;;;;;;5.12;100.00;102208.94;4985180;28;20554;-51
2021/03/03 04:31:19;;;;;;;82.32;44.67;;;;;;;5.21;100.00;102205.69;4985522;28;20038;-52
2021/03/03 04:33:47;;;;;;;78.57;42.83;;;;;;;5.35;100.00;102205.69;4987807;28;20042;-53
2021/03/03 04:36:14;;;;;;;81.28;43.47;;;;;;;5.48;100.00;102205.78;4985953;28;20068;-53
2021/03/03 04:38:40;;;;;;;85.65;40.92;;;;;;;5.79;100.00;102209.16;4984692;28;20038;-51
2021/03/03 04:41:08;;;;;;;72.15;36.53;;;;;;;5.70;100.00;102207.09;4985205;28;20366;-54
2021/03/03 04:43:35;;;;;;;71.05;38.70;;;;;;;5.03;100.00;102207.66;4984883;28;20046;-52
2021/03/03 04:46:02;;;;;;;81.72;41.97;;;;;;;4.80;100.00;102201.94;4984686;28;20046;-54
2021/03/03 04:48:29;;;;;;;76.60;40.80;;;;;;;4.40;100.00;102212.25;4982261;28;20046;-53
2021/03/03 04:50:56;;;;;;;86.30;42.15;;;;;;;4.21;100.00;102208.94;4984918;28;20073;-53
2021/03/03 04:53:24;;;;;;;78.93;43.22;;;;;;;4.09;100.00;102210.50;4981698;28;20263;-52
2021/03/03 04:55:50;;;;;;;93.18;46.92;;;;;;;4.04;100.00;102210.78;4984471;28;20438;-50
2021/03/03 04:58:18;;;;;;;78.53;43.10;;;;;;;3.93;100.00;102213.16;4982249;28;20046;-53
2021/03/03 05:00:45;;;;;;;87.43;45.40;;;;;;;3.81;100.00;102211.19;4983175;28;20074;-52
2021/03/03 05:03:31;;;;;;;98.60;45.47;;;;;;;3.75;100.00;102209.75;4986000;28;20057;-54
2021/03/03 05:06:02;;;;;;;101.38;48.30;;;;;;;3.73;100.00;102211.63;4984886;28;20065;-52
2021/03/03 05:08:29;;;;;;;102.80;50.53;;;;;;;3.82;100.00;102212.91;4983301;28;20145;-53
2021/03/03 05:10:56;;;;;;;104.15;49.17;;;;;;;3.86;100.00;102211.81;4986126;28;20043;-53
2021/03/03 05:13:24;;;;;;;104.03;51.78;;;;;;;3.96;100.00;102208.53;4988049;28;20101;-52
2021/03/03 05:15:51;;;;;;;93.95;48.45;;;;;;;4.04;100.00;102208.13;4983612;28;20042;-52
2021/03/03 05:18:18;;;;;;;91.18;46.25;;;;;;;4.09;100.00;102206.06;4984536;28;20096;-54
2021/03/03 05:20:45;;;;;;;101.15;49.33;;;;;;;4.03;100.00;102202.94;4987124;28;20050;-50
2021/03/03 05:23:12;;;;;;;91.32;46.53;;;;;;;3.97;100.00;102209.41;4982847;28;20097;-53
2021/03/03 05:25:39;;;;;;;88.32;46.65;;;;;;;3.96;100.00;102207.72;4984812;28;20053;-53
2021/03/03 05:28:06;;;;;;;91.13;46.28;;;;;;;3.99;100.00;102204.03;4982876;28;20445;-52
2021/03/03 05:30:34;;;;;;;98.03;48.30;;;;;;;4.14;100.00;102203.19;4981855;28;20065;-54
2021/03/03 05:33:01;;;;;;;87.22;48.75;;;;;;;4.36;100.00;102200.13;4984235;28;20423;-51
2021/03/03 05:35:28;;;;;;;91.93;45.30;;;;;;;4.46;100.00;102200.47;4986145;28;20426;-54
2021/03/03 05:37:55;;;;;;;86.72;43.45;;;;;;;4.66;100.00;102194.00;4984305;28;20068;-53
2021/03/03 05:40:23;;;;;;;92.90;45.15;;;;;;;4.64;100.00;102194.09;4980492;28;20035;-53
2021/03/03 05:42:49;;;;;;;93.32;45.72;;;;;;;4.70;100.00;102190.22;4985439;28;20038;-53
2021/03/03 05:45:18;;;;;;;82.43;42.03;;;;;;;4.59;100.00;102197.94;4982143;28;20049;-53
2021/03/03 05:47:48;;;;;;;94.05;48.78;;;;;;;4.56;100.00;102198.13;4986502;28;20058;-53
2021/03/03 05:50:16;;;;;;;97.25;48.85;;;;;;;4.62;100.00;102198.63;4981268;28;20039;-53
2021/03/03 05:52:43;;;;;;;85.88;44.53;;;;;;;4.69;100.00;102193.81;4985325;28;20050;-52
2021/03/03 05:55:12;;;;;;;87.45;46.08;;;;;;;4.81;100.00;102193.09;4984983;28;20031;-53
2021/03/03 05:57:39;;;;;;;89.65;43.38;;;;;;;4.99;100.00;102192.94;4980161;28;20394;-53
2021/03/03 06:00:07;;;;;;;89.35;44.78;;;;;;;5.07;100.00;102192.47;4977539;28;20348;-54
2021/03/03 06:02:37;;;;;;;86.90;43.22;;;;;;;5.04;100.00;102192.66;4984382;28;20050;-52
2021/03/03 06:05:07;;;;;;;78.15;39.92;;;;;;;5.11;100.00;102194.81;4981425;28;20161;-52
2021/03/03 06:07:35;;;;;;;84.93;40.15;;;;;;;5.13;100.00;102192.94;4985202;28;20034;-54
2021/03/03 06:10:01;;;;;;;81.72;43.22;;;;;;;5.21;100.00;102195.09;4979113;28;20034;-54
2021/03/03 06:12:28;;;;;;;74.38;37.30;;;;;;;5.27;100.00;102199.19;4981249;28;20064;-52
2021/03/03 06:14:55;;;;;;;70.18;36.60;;;;;;;5.49;100.00;102199.53;4979441;28;20053;-54
2021/03/03 06:17:22;;;;;;;75.88;36.30;;;;;;;5.38;100.00;102195.88;4985716;28;20442;-52
2021/03/03 06:19:50;;;;;;;73.03;32.47;;;;;;;5.37;100.00;102200.31;4983176;28;20042;-49
2021/03/03 06:22:25;;;;;;;61.90;32.33;;;;;;;5.40;100.00;102200.13;4991084;28;20453;-51
2021/03/03 06:24:58;;;;;;;70.18;33.05;;;;;;;5.49;100.00;102207.50;4987969;28;20431;-54
2021/03/03 06:27:26;;;;;;;62.65;32.97;;;;;;;5.51;100.00;102202.97;4994273;28;20034;-53
2021/03/03 06:30:06;;;;;;;68.50;33.28;;;;;;;5.68;100.00;102204.56;4979900;28;20042;-51
2021/03/03 06:32:55;;;;;;;57.53;27.33;;;;;;;6.54;100.00;102211.38;4986095;28;20053;-53
2021/03/03 06:35:36;;;;;;;62.03;24.75;;;;;;;7.34;100.00;102209.53;4987701;28;20080;-53
2021/03/03 06:38:04;;;;;;;57.30;26.10;;;;;;;7.69;100.00;102206.19;4986434;28;20042;-51
2021/03/03 06:40:32;;;;;;;49.28;24.20;;;;;;;7.90;100.00;102209.94;4982559;28;20426;-56
2021/03/03 06:43:17;;;;;;;50.13;24.27;;;;;;;8.11;100.00;102212.00;4982559;28;20057;-53
2021/03/03 06:45:44;;;;;;;47.38;24.15;;;;;;;8.19;100.00;102209.59;4985916;28;20042;-54
2021/03/03 06:48:11;;;;;;;40.45;23.48;;;;;;;8.17;100.00;102211.53;4986870;28;20065;-55
2021/03/03 06:50:40;;;;;;;51.33;24.30;;;;;;;7.86;100.00;102208.47;4987263;28;20887;-53
2021/03/03 06:53:08;;;;;;;56.00;25.88;;;;;;;7.74;100.00;102204.06;4985619;28;20046;-56
2021/03/03 06:55:46;;;;;;;59.25;26.63;;;;;;;7.68;100.00;102204.47;4989568;28;20045;-56
2021/03/03 06:58:27;;;;;;;51.00;26.23;;;;;;;7.35;100.00;102213.88;4982795;28;20739;-54
2021/03/03 07:00:54;;;;;;;43.90;23.67;;;;;;;7.01;100.00;102210.94;4982722;28;20330;-54
2021/03/03 07:03:26;;;;;;;52.22;25.90;;;;;;;6.95;100.00;102209.53;4986566;28;20053;-54
2021/03/03 07:05:54;;;;;;;54.05;25.95;;;;;;;6.98;100.00;102211.97;4989769;28;20046;-55
2021/03/03 07:08:22;;;;;;;48.05;24.63;;;;;;;7.11;100.00;102217.28;4988362;28;20038;-55
2021/03/03 07:11:04;;;;;;;;;;;;;;;;;;;;;
2021/03/03 07:13:38;;;;;;;50.70;27.98;;;;;;;7.00;100.00;102215.41;4985251;28;20042;-54
2021/03/03 07:16:07;;;;;;;60.10;33.00;;;;;;;6.91;100.00;102223.16;4985835;28;20080;-56
2021/03/03 07:18:37;;;;;;;67.38;32.33;;;;;;;6.79;100.00;102215.06;4984646;28;20073;-55
2021/03/03 07:21:06;;;;;;;57.63;32.42;;;;;;;6.84;100.00;102220.03;4987797;28;20049;-53
2021/03/03 07:23:47;;;;;;;66.22;33.00;;;;;;;6.71;100.00;102214.72;4984187;28;20050;-56
2021/03/03 07:26:16;;;;;;;67.13;30.85;;;;;;;6.75;100.00;102215.34;4985328;28;20050;-55
2021/03/03 07:28:43;;;;;;;61.22;32.47;;;;;;;6.66;100.00;102222.13;4985809;28;20375;-55
2021/03/03 07:31:13;;;;;;;63.90;30.92;;;;;;;6.98;100.00;102227.06;4987279;28;20042;-54
2021/03/03 07:33:40;;;;;;;64.38;32.60;;;;;;;7.01;100.00;102219.72;4988445;28;20058;-56
2021/03/03 07:36:08;;;;;;;62.47;29.77;;;;;;;7.14;100.00;102233.00;4984451;28;20046;-55
2021/03/03 07:38:41;;;;;;;58.55;29.27;;;;;;;7.25;100.00;102229.63;4989097;28;20450;-54
2021/03/03 07:41:12;;;;;;;58.88;30.58;;;;;;;7.18;100.00;102234.50;4985671;28;20122;-55
2021/03/03 07:43:46;;;;;;;55.35;30.00;;;;;;;7.02;100.00;102231.22;4989059;28;20049;-55
2021/03/03 07:46:13;;;;;;;61.97;30.23;;;;;;;6.94;100.00;102228.25;4985771;28;20136;-52
2021/03/03 07:48:42;;;;;;;59.50;31.60;;;;;;;7.00;100.00;102225.16;4984769;28;20108;-54
2021/03/03 07:51:10;;;;;;;59.53;31.20;;;;;;;7.04;100.00;102231.97;4987044;28;20065;-53
2021/03/03 07:53:39;;;;;;;62.15;31.88;;;;;;;7.29;100.00;102223.16;4985317;28;20054;-51
2021/03/03 07:56:07;;;;;;;64.85;31.83;;;;;;;7.49;100.00;102221.75;4986407;28;20053;-51
2021/03/03 07:58:36;;;;;;;61.10;31.15;;;;;;;7.64;100.00;102218.94;4987886;28;20066;-54
2021/03/03 08:01:21;;;;;;;65.63;34.03;;;;;;;7.67;100.00;102213.41;4986136;28;20042;-52
2021/03/03 08:03:50;;;;;;;63.78;32.42;;;;;;;7.79;100.00;102228.47;4983134;28;20427;-52
2021/03/03 08:06:36;;;;;;;57.97;31.63;;;;;;;7.90;100.00;102225.91;4987291;28;20042;-48
2021/03/03 08:09:17;;;;;;;61.13;31.67;;;;;;;7.98;100.00;102222.69;4984117;28;20042;-51
2021/03/03 08:11:46;;;;;;;68.03;32.97;;;;;;;7.96;100.00;102221.94;4985283;28;20042;-53
2021/03/03 08:14:31;;;;;;;57.75;32.63;;;;;;;8.16;100.00;102223.13;4987184;28;20054;-53
2021/03/03 08:16:59;;;;;;;61.40;32.65;;;;;;;8.34;100.00;102223.59;4991241;28;20054;-53
2021/03/03 08:19:56;;;;;;;65.63;33.22;;;;;;;8.43;100.00;102228.25;4987368;28;20042;-54
2021/03/03 08:22:37;;;;;;;;;;;;;;;8.54;100.00;102218.63;4988162;28;20042;-52
2021/03/03 08:25:05;;;;;;;54.05;30.33;;;;;;;8.81;100.00;102221.00;4987208;28;19933;-52
2021/03/03 08:27:36;;;;;;;58.55;30.10;;;;;;;8.83;100.00;102213.75;4986083;28;20061;-52
2021/03/03 08:30:11;;;;;;;60.72;31.98;;;;;;;9.09;100.00;102218.91;4983844;28;20101;-52
2021/03/03 08:32:38;;;;;;;56.60;30.17;;;;;;;9.35;100.00;102218.66;4985164;28;20308;-51
2021/03/03 08:35:07;;;;;;;63.58;29.23;;;;;;;9.32;100.00;102214.41;4985835;28;20070;-52
2021/03/03 08:37:35;;;;;;;58.58;29.42;;;;;;;9.67;100.00;102209.91;4987064;28;20038;-54
2021/03/03 08:40:05;;;;;;;53.95;28.30;;;;;;;9.77;100.00;102213.56;4979227;28;20043;-53
2021/03/03 08:42:35;;;;;;;54.28;30.27;;;;;;;9.91;100.00;102210.63;4984127;28;20046;-53
2021/03/03 08:45:07;;;;;;;59.72;30.83;;;;;;;10.10;100.00;102212.63;4985640;28;20053;-53
2021/03/03 08:47:56;;;;;;;54.92;31.02;;;;;;;10.55;100.00;102208.97;4985944;28;20042;-51
2021/03/03 08:50:34;;;;;;;74.22;39.33;;;;;;;10.68;100.00;102209.59;4981473;28;20350;-52
2021/03/03 08:53:25;;;;;;;56.13;29.02;;;;;;;10.79;100.00;102205.19;4987060;28;20046;-52
2021/03/03 08:55:53;;;;;;;59.97;32.63;;;;;;;11.20;100.00;102214.16;4984425;28;20578;-52
2021/03/03 08:58:49;;;;;;;76.38;38.97;;;;;;;11.65;100.00;102208.44;4987381;28;20411;-53
2021/03/03 09:01:16;;;;;;;68.10;33.75;;;;;;;11.94;100.00;102215.69;4984053;28;20038;-52
2021/03/03 09:03:53;;;;;;;53.88;29.27;;;;;;;11.82;100.00;102220.31;4984269;28;20050;-51
2021/03/03 09:06:34;;;;;;;52.58;29.00;;;;;;;11.63;100.00;102210.38;4983958;28;20338;-53
2021/03/03 09:09:01;;;;;;;57.15;29.58;;;;;;;11.67;100.00;102210.97;4984250;28;20050;-52
2021/03/03 09:11:28;;;;;;;53.10;28.73;;;;;;;11.94;100.00;102210.34;4985674;28;20038;-52
2021/03/03 09:13:56;;;;;;;50.35;29.83;;;;;;;11.69;100.00;102207.16;4987309;28;20057;-53
2021/03/03 09:16:23;;;;;;;54.65;31.20;;;;;;;11.03;100.00;102213.78;4984915;28;20568;-51
2021/03/03 09:19:06;;;;;;;48.63;28.13;;;;;;;11.46;100.00;102205.69;4983278;28;20122;-54
2021/03/03 09:21:33;;;;;;;51.15;29.25;;;;;;;11.98;100.00;102214.44;4982232;28;20370;-53
2021/03/03 09:24:10;;;;;;;52.40;29.48;;;;;;;12.17;100.00;102220.81;4984688;28;20046;-52
2021/03/03 09:26:37;;;;;;;50.30;27.10;;;;;;;12.39;100.00;102206.31;4988548;28;20338;-50
2021/03/03 09:29:05;;;;;;;48.63;28.48;;;;;;;11.93;100.00;102197.91;4977306;28;20129;-53
2021/03/03 09:31:34;;;;;;;48.10;27.83;;;;;;;11.63;100.00;102198.84;4983473;28;20125;-54
2021/03/03 09:34:02;;;;;;;52.08;26.65;;;;;;;12.36;100.00;102201.22;4982429;28;20129;-54
2021/03/03 09:36:30;;;;;;;54.60;28.40;;;;;;;12.04;100.00;102203.16;4985549;28;20039;-54
2021/03/03 09:38:58;;;;;;;50.90;25.60;;;;;;;12.44;100.00;102206.72;4983905;28;20050;-54
2021/03/03 09:41:26;;;;;;;46.72;26.02;;;;;;;12.89;100.00;102197.22;4984206;28;20334;-55
2021/03/03 09:44:01;;;;;;;54.40;28.27;;;;;;;12.47;100.00;102200.22;4985354;28;20045;-54
2021/03/03 09:46:29;;;;;;;53.57;27.33;;;;;;;12.85;100.00;102206.53;4986144;28;20042;-52
2021/03/03 09:48:56;;;;;;;50.13;26.33;;;;;;;13.17;100.00;102203.47;4986259;28;20472;-50
2021/03/03 09:51:23;;;;;;;52.65;27.58;;;;;;;13.53;100.00;102202.81;4983568;28;20046;-53
2021/03/03 09:53:54;;;;;;;47.58;25.63;;;;;;;14.07;100.00;102209.09;4987474;28;20042;-51
2021/03/03 09:56:30;;;;;;;48.20;25.88;;;;;;;13.77;100.00;102202.25;4991488;28;20338;-53
2021/03/03 09:58:56;;;;;;;;;;;;;;;14.04;100.00;102204.03;4988990;28;20042;-54
2021/03/03 10:01:24;;;;;;;43.45;24.50;;;;;;;13.65;100.00;102204.31;4987331;28;20392;-54
2021/03/03 10:03:52;;;;;;;47.80;28.10;;;;;;;11.97;100.00;102210.06;4991903;28;20145;-51
2021/03/03 10:06:19;;;;;;;50.70;27.45;;;;;;;12.94;100.00;102208.31;4987703;28;20046;-51
2021/03/03 10:08:46;;;;;;;48.35;24.50;;;;;;;13.33;100.00;102205.53;4985794;28;20043;-54
2021/03/03 10:11:15;;;;;;;51.85;26.33;;;;;;;13.69;100.00;102207.50;4985123;28;20046;-50
2021/03/03 10:13:42;;;;;;;49.72;25.10;;;;;;;14.16;100.00;102195.75;4990117;28;20050;-54
2021/03/03 10:16:16;;;;;;;41.83;23.65;;;;;;;14.29;100.00;102193.53;4990326;28;20046;-53
2021/03/03 10:19:00;;;;;;;45.63;25.33;;;;;;;14.46;100.00;102198.06;4989955;28;20469;-53
2021/03/03 10:21:27;;;;;;;43.45;24.63;;;;;;;14.59;100.00;102194.13;4986947;28;20311;-54
2021/03/03 10:23:54;;;;;;;46.08;23.13;;;;;;;14.53;100.00;102192.91;4988221;28;20444;-52
2021/03/03 10:26:40;;;;;;;42.38;23.35;;;;;;;14.85;100.00;102191.47;4990643;28;20039;-52
2021/03/03 10:29:07;;;;;;;46.63;24.85;;;;;;;14.02;100.00;102194.44;4986460;28;20049;-53
2021/03/03 10:31:35;;;;;;;42.20;25.40;;;;;;;14.12;100.00;102190.69;4985119;28;20526;-52
2021/03/03 10:34:12;;;;;;;43.95;24.50;;;;;;;14.14;100.00;102197.75;4985157;28;20042;-52
2021/03/03 10:36:41;;;;;;;44.60;23.92;;;;;;;13.57;100.00;102193.47;4989032;28;20038;-53
2021/03/03 10:39:10;;;;;;;44.83;25.42;;;;;;;14.42;100.00;102191.28;4986549;28;20759;-50
2021/03/03 10:41:37;;;;;;;47.17;24.33;;;;;;;14.55;100.00;102196.28;4986594;28;20053;-52
2021/03/03 10:44:06;;;;;;;41.30;23.95;;;;;;;15.27;100.00;102195.25;4984038;28;20050;-53
2021/03/03 10:46:43;;;;;;;47.97;25.77;;;;;;;15.37;100.00;102195.97;4986833;28;20050;-48
2021/03/03 10:49:12;;;;;;;46.45;23.65;;;;;;;15.92;100.00;102199.19;4980783;28;20458;-53
2021/03/03 10:51:40;;;;;;;43.00;26.40;;;;;;;14.28;100.00;102192.69;4986769;28;20048;-51
2021/03/03 10:54:08;;;;;;;45.00;25.52;;;;;;;15.27;100.00;102192.56;4982234;28;20042;-49
2021/03/03 10:56:37;;;;;;;41.92;22.65;;;;;;;15.38;100.00;102197.66;4984557;28;20049;-53
2021/03/03 10:59:06;;;;;;;39.63;21.90;;;;;;;15.24;100.00;102191.03;4986245;28;20066;-49
2021/03/03 11:01:43;;;;;;;41.67;20.83;;;;;;;15.31;100.00;102191.25;4981165;28;20066;-52
2021/03/03 11:04:11;;;;;;;35.92;20.13;;;;;;;14.72;100.00;102191.88;4987047;28;20058;-51
2021/03/03 11:06:38;;;;;;;38.15;22.05;;;;;;;15.25;100.00;102191.88;4986791;28;20050;-49
2021/03/03 11:09:09;;;;;;;41.53;21.90;;;;;;;15.39;100.00;102193.13;4985574;28;20061;-52
2021/03/03 11:11:47;;;;;;;47.85;22.48;;;;;;;14.45;100.00;102188.28;4984494;28;20130;-56
2021/03/03 11:14:14;;;;;;;40.05;20.25;;;;;;;15.44;100.00;102188.94;4985673;28;20460;-52
2021/03/03 11:16:44;;;;;;;37.80;20.10;;;;;;;15.56;100.00;102185.94;4985298;28;20049;-53
2021/03/03 11:19:11;;;;;;;38.03;21.05;;;;;;;15.22;100.00;102187.66;4982148;28;20502;-52